Time;durP1;ratioP1;P1;durP2;ratioP2;P2;SDS_P1;SDS_P2;PMS_P1;PMS_P2;Temp;Humidity;BMP_temperature;BMP_pressure;BME280_temperature;BME280_humidity;BME280_pressure;Samples;Min_cycle;Max_cycle;Signal;HPM_P1;HPM_P2
2023/09/07 00:01:33;;;;;;;10.23;7.78;;;18.10;99.90;;;;;;5009705;28;20196;-72
2023/09/07 00:04:03;;;;;;;8.73;7.82;;;18.10;99.90;;;;;;4991569;28;20220;-72
2023/09/07 00:06:31;;;;;;;8.50;7.70;;;18.10;99.90;;;;;;4992892;28;20038;-72
2023/09/07 00:08:58;;;;;;;9.50;8.35;;;18.10;99.90;;;;;;5010399;28;20052;-72
2023/09/07 00:11:26;;;;;;;8.52;7.72;;;18.00;99.90;;;;;;5005190;28;20073;-72
2023/09/07 00:13:53;;;;;;;8.73;7.80;;;18.00;99.90;;;;;;5009627;28;20046;-72
2023/09/07 00:16:21;;;;;;;11.57;8.50;;;18.00;99.90;;;;;;5008929;28;20108;-72
2023/09/07 00:18:49;;;;;;;10.00;7.93;;;18.00;99.90;;;;;;4991715;28;20096;-72
2023/09/07 00:21:16;;;;;;;9.43;7.90;;;17.90;99.90;;;;;;4984174;28;20061;-71
2023/09/07 00:23:44;;;;;;;9.23;8.32;;;17.90;99.90;;;;;;4997898;28;20048;-72
2023/09/07 00:26:12;;;;;;;9.18;7.82;;;17.90;99.90;;;;;;5006196;28;20038;-72
2023/09/07 00:28:40;;;;;;;9.05;8.15;;;17.90;99.90;;;;;;4980560;28;20058;-72
2023/09/07 00:31:08;;;;;;;9.10;8.20;;;17.80;99.90;;;;;;4992487;28;20463;-73
2023/09/07 00:33:35;;;;;;;12.13;8.10;;;17.80;99.90;;;;;;4992284;28;20595;-73
2023/09/07 00:36:03;;;;;;;9.73;8.70;;;17.80;99.90;;;;;;4974365;28;20573;-71
2023/09/07 00:38:30;;;;;;;8.77;7.97;;;17.80;99.90;;;;;;4992652;28;20045;-72
2023/09/07 00:40:58;;;;;;;9.45;8.48;;;17.70;99.90;;;;;;5009699;28;20037;-73
2023/09/07 00:43:26;;;;;;;9.57;8.68;;;17.70;99.90;;;;;;5010108;28;20108;-73
2023/09/07 00:45:54;;;;;;;9.25;8.30;;;17.70;99.90;;;;;;4991842;28;20068;-73
2023/09/07 00:48:21;;;;;;;9.60;8.60;;;17.70;99.90;;;;;;5009485;28;20137;-73
2023/09/07 00:50:50;;;;;;;8.93;8.05;;;17.60;99.90;;;;;;4962924;28;20060;-73
2023/09/07 00:53:18;;;;;;;11.07;8.15;;;17.60;99.90;;;;;;4992035;28;20506;-73
2023/09/07 00:55:45;;;;;;;9.82;8.27;;;17.60;99.90;;;;;;5009674;28;20096;-73
2023/09/07 00:58:14;;;;;;;9.10;8.20;;;17.50;99.90;;;;;;4991848;28;20069;-72
2023/09/07 01:00:42;;;;;;;9.50;7.38;;;17.50;99.90;;;;;;4991613;28;20042;-73
2023/09/07 01:03:09;;;;;;;10.30;8.13;;;17.40;99.90;;;;;;4989139;28;20050;-73
2023/09/07 01:05:55;;;;;;;9.45;8.10;;;17.40;99.90;;;;;;4994970;28;20052;-72
2023/09/07 01:08:45;;;;;;;11.52;8.30;;;17.30;99.90;;;;;;5009294;28;20803;-73
2023/09/07 01:11:17;;;;;;;8.93;8.02;;;17.30;99.90;;;;;;4988300;28;20384;-73
2023/09/07 01:13:44;;;;;;;9.48;8.48;;;17.20;99.90;;;;;;4991233;28;20069;-73
2023/09/07 01:16:13;;;;;;;9.27;8.23;;;17.20;99.90;;;;;;4977600;28;20375;-72
2023/09/07 01:18:41;;;;;;;9.60;8.02;;;17.20;99.90;;;;;;4991176;28;20116;-73
2023/09/07 01:21:11;;;;;;;10.13;8.00;;;17.20;99.90;;;;;;4991281;28;20072;-73
2023/09/07 01:23:44;;;;;;;9.00;8.10;;;17.10;99.90;;;;;;4991006;28;20060;-73
2023/09/07 01:26:12;;;;;;;12.50;8.07;;;17.20;99.90;;;;;;4975130;28;20081;-73
2023/09/07 01:28:39;;;;;;;10.15;7.63;;;17.20;99.90;;;;;;5008517;28;20100;-73
2023/09/07 01:31:06;;;;;;;9.23;8.05;;;17.20;99.90;;;;;;5008258;28;20141;-74
2023/09/07 01:33:34;;;;;;;9.73;7.57;;;17.10;99.90;;;;;;4991004;28;20430;-71
2023/09/07 01:36:02;;;;;;;9.95;8.68;;;17.10;99.90;;;;;;5007890;28;20058;-72
2023/09/07 01:38:30;;;;;;;10.05;7.72;;;17.10;99.90;;;;;;4990862;28;20561;-72
2023/09/07 01:40:58;;;;;;;18.85;13.60;;;17.10;99.90;;;;;;4977477;28;20133;-72
2023/09/07 01:43:26;;;;;;;21.65;15.88;;;17.00;99.90;;;;;;5009028;28;20533;-73
2023/09/07 01:45:53;;;;;;;12.32;10.20;;;17.00;99.90;;;;;;4989571;28;20111;-73
2023/09/07 01:48:21;;;;;;;11.68;9.30;;;17.00;99.90;;;;;;4970949;28;20053;-73
2023/09/07 01:50:53;;;;;;;9.50;8.50;;;16.90;99.90;;;;;;4984849;28;20042;-73
2023/09/07 01:53:21;;;;;;;9.25;8.32;;;16.90;99.90;;;;;;5006648;28;20046;-73
2023/09/07 01:55:50;;;;;;;13.50;8.73;;;16.90;99.90;;;;;;4973960;28;20050;-73
2023/09/07 01:58:18;;;;;;;9.45;8.45;;;16.80;99.90;;;;;;4990001;28;20050;-73
2023/09/07 02:00:45;;;;;;;9.50;8.00;;;16.80;99.90;;;;;;4990604;28;20042;-73
2023/09/07 02:03:13;;;;;;;9.35;7.97;;;16.80;99.90;;;;;;5008734;28;20137;-73
2023/09/07 02:05:41;;;;;;;12.10;8.65;;;16.70;99.90;;;;;;4991119;28;20058;-73
2023/09/07 02:08:08;;;;;;;10.23;8.55;;;16.70;99.90;;;;;;5007176;28;20485;-73
2023/09/07 02:10:36;;;;;;;10.57;8.63;;;16.70;99.90;;;;;;4979007;28;20046;-73
2023/09/07 02:13:03;;;;;;;10.80;8.60;;;16.60;99.90;;;;;;4978704;28;20037;-73
2023/09/07 02:15:31;;;;;;;11.50;7.75;;;16.60;99.90;;;;;;4991432;28;20050;-73
2023/09/07 02:17:58;;;;;;;10.93;8.25;;;16.60;99.90;;;;;;4989931;28;20499;-73
2023/09/07 02:20:26;;;;;;;10.50;8.50;;;16.60;99.90;;;;;;4990241;28;20105;-73
2023/09/07 02:22:54;;;;;;;9.15;8.20;;;16.60;99.90;;;;;;5009699;28;20046;-72
2023/09/07 02:25:21;;;;;;;9.77;8.27;;;16.50;99.90;;;;;;4993104;28;20062;-72
2023/09/07 02:27:49;;;;;;;10.38;8.50;;;16.50;99.90;;;;;;4976270;28;20216;-72
2023/09/07 02:30:17;;;;;;;9.75;8.35;;;16.50;99.90;;;;;;5011853;28;20175;-72
2023/09/07 02:32:45;;;;;;;10.32;8.68;;;16.50;99.90;;;;;;4992948;28;20136;-72
2023/09/07 02:35:12;;;;;;;9.57;8.60;;;16.50;99.90;;;;;;4999452;28;20129;-72
2023/09/07 02:37:40;;;;;;;9.65;7.97;;;16.40;99.90;;;;;;4993308;28;20053;-72
2023/09/07 02:40:08;;;;;;;9.73;8.30;;;16.40;99.90;;;;;;4992018;28;20046;-72
2023/09/07 02:42:36;;;;;;;11.05;8.38;;;16.30;99.90;;;;;;5010840;28;20042;-72
2023/09/07 02:45:04;;;;;;;11.40;8.48;;;16.30;99.90;;;;;;4992161;28;20084;-72
2023/09/07 02:47:33;;;;;;;9.75;8.68;;;16.30;99.90;;;;;;4993364;28;20117;-72
2023/09/07 02:50:00;;;;;;;12.10;8.60;;;16.30;99.90;;;;;;4976941;28;20565;-73
2023/09/07 02:52:29;;;;;;;11.80;7.88;;;16.20;99.90;;;;;;4974518;28;20104;-72
2023/09/07 02:54:56;;;;;;;9.27;7.82;;;16.20;99.90;;;;;;4974359;28;20073;-70
2023/09/07 02:57:24;;;;;;;9.40;8.30;;;16.20;99.90;;;;;;4990504;28;20128;-73
2023/09/07 02:59:53;;;;;;;11.05;8.50;;;16.20;99.90;;;;;;5010045;28;20474;-72
2023/09/07 03:02:20;;;;;;;9.80;8.65;;;16.10;99.90;;;;;;4984813;28;20498;-73
2023/09/07 03:04:52;;;;;;;11.88;9.20;;;16.10;99.90;;;;;;5010005;28;20049;-73
2023/09/07 03:07:20;;;;;;;9.80;8.13;;;16.00;99.90;;;;;;5011083;28;20462;-73
2023/09/07 03:09:47;;;;;;;9.45;8.45;;;16.00;99.90;;;;;;4995773;28;20088;-73
2023/09/07 03:12:15;;;;;;;9.82;8.57;;;16.00;99.90;;;;;;4993278;28;20045;-74
2023/09/07 03:14:45;;;;;;;10.82;8.68;;;15.90;99.90;;;;;;4977141;28;20139;-74
2023/09/07 03:17:12;;;;;;;13.77;9.70;;;15.90;99.90;;;;;;5010402;28;20065;-73
2023/09/07 03:19:40;;;;;;;10.18;9.18;;;15.90;99.90;;;;;;5000215;28;20108;-73
2023/09/07 03:22:08;;;;;;;12.82;9.40;;;15.80;99.90;;;;;;4991156;28;20029;-73
2023/09/07 03:24:36;;;;;;;10.65;9.52;;;15.80;99.90;;;;;;4993836;28;20125;-73
2023/09/07 03:27:05;;;;;;;10.43;9.10;;;15.80;99.90;;;;;;4990940;28;20397;-73
2023/09/07 03:29:35;;;;;;;12.98;9.65;;;15.70;99.90;;;;;;4992473;28;20053;-73
2023/09/07 03:32:04;;;;;;;10.25;9.18;;;15.70;99.90;;;;;;4991864;28;20034;-71
2023/09/07 03:34:32;;;;;;;11.93;9.35;;;15.60;99.90;;;;;;4999506;28;20064;-73
2023/09/07 03:37:00;;;;;;;12.75;9.50;;;15.50;99.90;;;;;;4997952;28;20115;-73
2023/09/07 03:39:27;;;;;;;12.73;10.30;;;15.50;99.90;;;;;;5010194;28;20537;-73
2023/09/07 03:41:55;;;;;;;10.57;8.95;;;15.40;99.90;;;;;;4974896;28;20514;-74
2023/09/07 03:44:23;;;;;;;15.00;9.98;;;15.40;99.90;;;;;;4992960;28;20041;-73
2023/09/07 03:46:51;;;;;;;15.88;9.77;;;15.30;99.90;;;;;;4975797;28;20077;-72
2023/09/07 03:49:18;;;;;;;12.25;10.02;;;15.30;99.90;;;;;;4973352;28;20058;-73
2023/09/07 03:51:45;;;;;;;11.68;9.45;;;15.20;99.90;;;;;;4976736;28;20073;-73
2023/09/07 03:54:13;;;;;;;11.70;9.68;;;15.20;99.90;;;;;;5009878;28;20076;-73
2023/09/07 03:56:40;;;;;;;13.82;10.43;;;15.20;99.90;;;;;;4991553;28;20045;-73
2023/09/07 03:59:09;;;;;;;17.95;11.68;;;15.20;99.90;;;;;;4995667;28;20474;-73
2023/09/07 04:01:36;;;;;;;13.73;10.70;;;15.10;99.90;;;;;;4990772;28;20313;-73
2023/09/07 04:04:04;;;;;;;13.10;10.43;;;15.10;99.90;;;;;;4986353;28;20049;-73
2023/09/07 04:06:31;;;;;;;14.38;9.55;;;15.10;99.90;;;;;;4991841;28;20046;-74
2023/09/07 04:08:59;;;;;;;12.68;10.02;;;15.10;99.90;;;;;;4993140;28;20128;-73
2023/09/07 04:11:26;;;;;;;12.73;9.63;;;15.00;99.90;;;;;;4996872;28;20052;-73
2023/09/07 04:13:54;;;;;;;11.75;9.63;;;15.00;99.90;;;;;;4991814;28;20054;-73
2023/09/07 04:16:22;;;;;;;12.98;10.55;;;15.00;99.90;;;;;;4975856;28;20086;-73
2023/09/07 04:18:49;;;;;;;16.40;9.82;;;14.90;99.90;;;;;;5008963;28;20050;-73
2023/09/07 04:21:17;;;;;;;14.45;10.88;;;14.90;99.90;;;;;;4992836;28;20133;-73
2023/09/07 04:23:45;;;;;;;14.65;10.75;;;14.90;99.90;;;;;;4989807;28;20038;-73
2023/09/07 04:26:12;;;;;;;15.00;10.35;;;14.90;99.90;;;;;;5000382;28;20073;-73
2023/09/07 04:28:39;;;;;;;12.68;10.23;;;14.90;99.90;;;;;;4959793;28;20053;-73
2023/09/07 04:31:07;;;;;;;13.65;10.98;;;14.90;99.90;;;;;;4976080;28;20045;-74
2023/09/07 04:33:35;;;;;;;13.38;10.32;;;14.90;99.90;;;;;;4991452;28;20533;-73
2023/09/07 04:36:10;;;;;;;13.57;9.63;;;14.90;99.90;;;;;;4991166;28;20042;-73
2023/09/07 04:38:40;;;;;;;11.85;9.90;;;14.90;99.90;;;;;;4989152;28;20042;-73
2023/09/07 04:41:14;;;;;;;12.98;9.60;;;14.90;99.90;;;;;;4991601;28;20088;-73
2023/09/07 04:43:45;;;;;;;12.65;10.25;;;14.90;99.90;;;;;;4990601;28;20494;-73
2023/09/07 04:46:14;;;;;;;13.83;9.97;;;14.90;99.90;;;;;;5016374;28;20034;-73
2023/09/07 04:48:42;;;;;;;13.40;9.88;;;14.90;99.90;;;;;;4981202;28;20785;-73
2023/09/07 04:51:12;;;;;;;12.90;9.32;;;14.90;99.90;;;;;;5001602;28;20046;-73
2023/09/07 04:53:40;;;;;;;12.73;9.82;;;14.90;99.90;;;;;;4989682;28;20054;-73
2023/09/07 04:56:08;;;;;;;12.63;10.45;;;14.90;99.90;;;;;;4967395;28;20072;-73
2023/09/07 04:58:37;;;;;;;12.23;10.13;;;15.00;99.90;;;;;;5009146;28;20042;-73
2023/09/07 05:01:11;;;;;;;16.27;10.63;;;15.00;99.90;;;;;;4987210;28;20064;-74
2023/09/07 05:03:40;;;;;;;13.25;9.93;;;15.00;99.90;;;;;;4990729;28;20125;-74
2023/09/07 05:06:09;;;;;;;13.55;9.73;;;15.10;99.90;;;;;;4991689;28;20133;-73
2023/09/07 05:08:36;;;;;;;18.52;11.18;;;15.10;99.90;;;;;;4991855;28;20466;-73
2023/09/07 05:11:04;;;;;;;12.70;9.80;;;15.10;99.90;;;;;;4991845;28;20104;-73
2023/09/07 05:13:33;;;;;;;13.93;10.35;;;15.20;99.90;;;;;;4991725;28;20080;-74
2023/09/07 05:16:02;;;;;;;12.90;10.65;;;15.30;99.90;;;;;;5007607;28;20129;-74
2023/09/07 05:18:30;;;;;;;12.27;9.85;;;15.30;99.90;;;;;;4999903;28;20050;-73
2023/09/07 05:20:58;;;;;;;14.27;10.35;;;15.30;99.90;;;;;;5007647;28;21148;-72
2023/09/07 05:23:26;;;;;;;13.95;11.23;;;15.30;99.90;;;;;;4991231;28;20046;-72
2023/09/07 05:25:55;;;;;;;13.07;10.35;;;15.40;99.90;;;;;;4991204;28;20042;-73
2023/09/07 05:28:25;;;;;;;14.43;10.35;;;15.50;99.90;;;;;;4975622;28;20517;-73
2023/09/07 05:30:55;;;;;;;12.13;9.02;;;15.50;99.90;;;;;;4974800;28;20127;-72
2023/09/07 05:33:24;;;;;;;20.90;11.02;;;15.60;99.90;;;;;;4991631;28;20077;-74
2023/09/07 05:35:51;;;;;;;14.48;10.68;;;15.70;99.90;;;;;;4974714;28;20046;-73
2023/09/07 05:38:20;;;;;;;14.38;10.23;;;15.70;99.90;;;;;;5002180;28;20100;-73
2023/09/07 05:40:50;;;;;;;14.38;9.95;;;15.70;99.90;;;;;;4987512;28;20045;-73
2023/09/07 05:43:18;;;;;;;13.32;10.50;;;15.80;99.90;;;;;;5001296;28;20042;-73
2023/09/07 05:45:45;;;;;;;10.98;9.23;;;15.80;99.90;;;;;;4975675;28;20053;-74
2023/09/07 05:48:16;;;;;;;16.08;12.00;;;15.90;99.90;;;;;;4999685;28;20033;-72
2023/09/07 05:50:44;;;;;;;14.50;9.50;;;16.00;99.90;;;;;;4991094;28;20045;-72
2023/09/07 05:53:12;;;;;;;12.40;9.75;;;16.10;99.90;;;;;;4975334;28;20514;-73
2023/09/07 05:55:40;;;;;;;13.43;10.07;;;16.10;99.90;;;;;;5006733;28;20128;-72
2023/09/07 05:58:08;;;;;;;18.58;9.05;;;16.20;99.90;;;;;;4992816;28;20144;-72
2023/09/07 06:00:40;;;;;;;12.13;9.18;;;16.30;99.90;;;;;;5010694;28;20584;-72
2023/09/07 06:03:09;;;;;;;14.13;8.82;;;16.40;99.90;;;;;;4978664;28;20038;-72
2023/09/07 06:05:39;;;;;;;12.00;9.32;;;16.40;99.90;;;;;;4993265;28;20038;-73
2023/09/07 06:08:09;;;;;;;13.02;9.52;;;16.60;99.90;;;;;;4978096;28;20042;-73
2023/09/07 06:10:37;;;;;;;13.35;10.27;;;16.60;99.90;;;;;;4992902;28;20117;-72
2023/09/07 06:13:05;;;;;;;13.55;9.75;;;16.70;99.90;;;;;;4995176;28;20089;-72
2023/09/07 06:15:33;;;;;;;10.73;8.70;;;16.70;99.90;;;;;;4977429;28;20426;-73
2023/09/07 06:18:01;;;;;;;17.25;9.35;;;16.80;99.90;;;;;;4976580;28;20052;-72
2023/09/07 06:20:29;;;;;;;13.48;9.13;;;17.00;99.90;;;;;;5006300;28;20057;-73
2023/09/07 06:22:59;;;;;;;14.60;9.90;;;17.00;99.90;;;;;;4964659;28;20082;-72
2023/09/07 06:25:27;;;;;;;10.77;8.63;;;17.10;99.90;;;;;;5001344;28;20037;-73
2023/09/07 06:27:55;;;;;;;9.48;8.48;;;17.20;99.90;;;;;;4992316;28;20042;-72
2023/09/07 06:30:24;;;;;;;11.68;9.57;;;17.30;99.90;;;;;;5010471;28;20081;-72
2023/09/07 06:32:52;;;;;;;11.52;9.38;;;17.40;99.90;;;;;;4992531;28;20689;-73
2023/09/07 06:35:21;;;;;;;12.68;8.95;;;17.50;99.90;;;;;;5009220;28;20054;-73
2023/09/07 06:37:48;;;;;;;13.65;8.63;;;17.70;99.90;;;;;;5008395;28;20126;-72
2023/09/07 06:40:19;;;;;;;13.88;9.25;;;17.70;99.90;;;;;;4989135;28;20046;-72
2023/09/07 06:42:50;;;;;;;;;;;17.90;99.90;;;;;;5011820;28;20116;-71
2023/09/07 06:45:21;;;;;;;14.30;7.85;;;17.90;99.90;;;;;;4985411;28;19921;-73
2023/09/07 06:47:50;;;;;;;16.73;9.85;;;18.00;99.90;;;;;;4967457;28;20056;-72
2023/09/07 06:50:21;;;;;;;10.63;8.27;;;18.20;99.90;;;;;;4977412;28;20114;-72
2023/09/07 06:52:49;;;;;;;10.15;7.85;;;18.30;99.90;;;;;;4994588;28;20497;-73
2023/09/07 06:55:16;;;;;;;13.05;8.45;;;18.40;99.90;;;;;;4975269;28;20046;-73
2023/09/07 06:57:45;;;;;;;13.27;10.10;;;18.50;99.90;;;;;;4991880;28;20095;-72
2023/09/07 07:00:13;;;;;;;17.13;9.32;;;18.60;99.90;;;;;;5010658;28;20121;-73
2023/09/07 07:02:41;;;;;;;12.63;8.20;;;18.60;99.90;;;;;;5010920;28;20045;-74
2023/09/07 07:05:10;;;;;;;12.23;8.60;;;18.70;99.90;;;;;;4993844;28;20049;-73
2023/09/07 07:07:39;;;;;;;9.63;8.00;;;18.70;99.90;;;;;;4994281;28;20581;-72
2023/09/07 07:10:08;;;;;;;9.60;7.78;;;18.80;99.90;;;;;;5010549;28;20034;-72
2023/09/07 07:12:39;;;;;;;12.00;8.05;;;18.90;99.90;;;;;;4994452;28;20046;-70
2023/09/07 07:15:08;;;;;;;8.70;7.80;;;19.00;99.90;;;;;;4994537;28;20045;-71
2023/09/07 07:17:35;;;;;;;12.98;7.80;;;19.10;99.90;;;;;;4988485;28;20053;-72
2023/09/07 07:20:04;;;;;;;8.80;7.88;;;19.20;99.90;;;;;;4983051;28;20413;-71
2023/09/07 07:22:35;;;;;;;16.40;12.55;;;19.30;99.90;;;;;;5011473;28;20052;-73
2023/09/07 07:25:07;;;;;;;12.27;8.98;;;19.40;99.90;;;;;;4989609;28;20406;-74
2023/09/07 07:27:34;;;;;;;9.90;8.35;;;19.50;99.90;;;;;;5011024;28;20053;-72
2023/09/07 07:30:03;;;;;;;13.07;8.32;;;19.60;99.90;;;;;;4992649;28;20060;-73
2023/09/07 07:32:30;;;;;;;12.25;8.27;;;19.70;99.90;;;;;;4984968;28;20053;-74
2023/09/07 07:34:58;;;;;;;10.85;8.63;;;19.80;99.90;;;;;;4993091;28;20046;-73
2023/09/07 07:37:26;;;;;;;9.88;8.73;;;19.90;99.90;;;;;;4982571;28;20093;-71
2023/09/07 07:39:54;;;;;;;11.98;9.02;;;20.00;99.90;;;;;;4981711;28;20050;-72
2023/09/07 07:42:21;;;;;;;18.83;9.07;;;20.10;99.90;;;;;;4981225;28;20120;-73
2023/09/07 07:44:50;;;;;;;12.18;9.38;;;20.20;99.90;;;;;;4997595;28;20046;-72
2023/09/07 07:47:18;;;;;;;13.23;8.85;;;20.30;99.90;;;;;;4961197;28;20408;-71
2023/09/07 07:49:46;;;;;;;9.90;7.97;;;20.40;99.90;;;;;;5002402;28;20037;-72
2023/09/07 07:52:14;;;;;;;46.05;29.17;;;20.50;99.90;;;;;;4993315;28;20049;-71
2023/09/07 07:54:43;;;;;;;17.58;11.65;;;20.60;99.90;;;;;;4988960;28;20156;-73
2023/09/07 07:57:10;;;;;;;13.35;9.23;;;20.70;99.90;;;;;;5007288;28;20044;-72
2023/09/07 07:59:38;;;;;;;11.23;8.50;;;20.80;99.90;;;;;;4992169;28;20053;-72
2023/09/07 08:02:06;;;;;;;12.95;9.23;;;20.90;99.90;;;;;;4974162;28;20073;-73
2023/09/07 08:04:35;;;;;;;13.30;8.98;;;21.00;99.90;;;;;;4992771;28;20120;-71
2023/09/07 08:07:05;;;;;;;14.02;9.68;;;21.10;99.90;;;;;;4991854;28;20045;-73
2023/09/07 08:09:34;;;;;;;9.82;8.57;;;21.20;99.90;;;;;;5004397;28;20408;-71
2023/09/07 08:12:02;;;;;;;10.02;8.98;;;21.40;99.90;;;;;;4992021;28;20046;-73
2023/09/07 08:14:32;;;;;;;9.40;8.40;;;21.40;99.90;;;;;;4987199;28;20054;-74
2023/09/07 08:17:01;;;;;;;11.13;7.88;;;21.60;99.90;;;;;;4992768;28;20090;-73
2023/09/07 08:19:31;;;;;;;12.43;8.48;;;21.70;99.90;;;;;;4971034;28;20073;-71
2023/09/07 08:22:03;;;;;;;8.70;7.80;;;21.80;99.90;;;;;;4992208;28;20054;-73
2023/09/07 08:24:32;;;;;;;9.30;7.95;;;21.90;99.90;;;;;;5003948;28;20049;-72
2023/09/07 08:27:01;;;;;;;8.68;7.82;;;22.00;99.90;;;;;;4998794;28;20038;-73
2023/09/07 08:29:32;;;;;;;10.15;8.38;;;22.00;99.90;;;;;;4998837;28;20038;-72
2023/09/07 08:32:03;;;;;;;9.00;8.13;;;22.20;99.90;;;;;;4997710;28;20052;-72
2023/09/07 08:34:31;;;;;;;8.60;7.70;;;22.30;99.90;;;;;;5006293;28;20045;-73
2023/09/07 08:36:59;;;;;;;10.98;8.95;;;22.40;99.90;;;;;;4991426;28;20053;-71
2023/09/07 08:39:27;;;;;;;10.65;9.02;;;22.50;99.90;;;;;;5009348;28;20050;-72
2023/09/07 08:41:58;;;;;;;18.67;14.23;;;22.50;99.90;;;;;;4991391;28;20038;-71
2023/09/07 08:44:30;;;;;;;9.93;8.90;;;22.60;99.90;;;;;;5001179;28;20450;-72
2023/09/07 08:46:59;;;;;;;8.82;7.65;;;22.70;99.90;;;;;;4989764;28;20092;-72
2023/09/07 08:49:27;;;;;;;9.63;8.48;;;22.80;99.90;;;;;;5009233;28;20496;-72
2023/09/07 08:51:58;;;;;;;9.80;7.55;;;22.90;99.90;;;;;;5008574;28;20049;-71
2023/09/07 08:54:27;;;;;;;9.00;7.95;;;23.00;99.90;;;;;;5008822;28;20050;-73
2023/09/07 08:56:57;;;;;;;9.93;8.93;;;23.10;99.90;;;;;;4978704;28;20050;-73
2023/09/07 08:59:24;;;;;;;13.85;8.88;;;23.20;99.90;;;;;;5003331;28;20137;-71
2023/09/07 09:01:56;;;;;;;9.63;8.63;;;23.20;99.90;;;;;;5008577;28;20124;-71
2023/09/07 09:04:27;;;;;;;10.13;8.20;;;23.30;99.90;;;;;;5008918;28;20065;-71
2023/09/07 09:06:56;;;;;;;10.07;8.63;;;23.40;99.90;;;;;;4990629;28;20057;-70
2023/09/07 09:09:24;;;;;;;8.95;8.05;;;23.50;99.90;;;;;;4990548;28;20108;-72
2023/09/07 09:11:52;;;;;;;8.32;7.53;;;23.60;99.90;;;;;;4985346;28;20078;-71
2023/09/07 09:14:21;;;;;;;10.65;8.65;;;23.70;99.90;;;;;;5007890;28;20124;-74
2023/09/07 09:16:53;;;;;;;8.70;7.90;;;23.80;99.90;;;;;;4991620;28;20057;-72
2023/09/07 09:19:31;;;;;;;10.50;8.32;;;23.90;99.90;;;;;;5007623;28;20073;-71
2023/09/07 09:22:01;;;;;;;8.80;8.00;;;24.10;99.90;;;;;;4991382;28;20609;-72
2023/09/07 09:24:32;;;;;;;9.02;8.13;;;24.10;99.90;;;;;;4975697;28;20049;-73
2023/09/07 09:27:00;;;;;;;8.80;7.90;;;24.20;99.90;;;;;;4974657;28;20103;-71
2023/09/07 09:29:28;;;;;;;11.18;8.88;;;24.30;99.90;;;;;;5003216;28;20088;-72
2023/09/07 09:31:55;;;;;;;11.65;8.93;;;24.30;99.90;;;;;;4974550;28;20054;-74
2023/09/07 09:34:23;;;;;;;9.75;8.02;;;24.40;99.90;;;;;;4991030;28;20514;-72
2023/09/07 09:36:51;;;;;;;8.23;7.43;;;24.50;99.90;;;;;;4991639;28;20046;-73
2023/09/07 09:39:23;;;;;;;8.93;8.00;;;24.70;99.90;;;;;;5008900;28;20144;-72
2023/09/07 09:41:52;;;;;;;8.82;7.32;;;24.80;99.90;;;;;;4991383;28;20088;-73
2023/09/07 09:44:25;;;;;;;8.50;7.70;;;24.90;99.90;;;;;;5006972;28;20494;-72
2023/09/07 09:46:56;;;;;;;8.05;7.25;;;25.00;99.90;;;;;;4990860;28;20061;-72
2023/09/07 09:49:26;;;;;;;;;;;25.10;99.90;;;;;;4989689;28;20050;-72
2023/09/07 09:51:54;;;;;;;8.75;7.03;;;25.20;99.90;;;;;;5008744;28;19925;-73
2023/09/07 09:54:24;;;;;;;9.30;7.93;;;25.30;99.90;;;;;;5009389;28;20077;-74
2023/09/07 09:56:51;;;;;;;8.55;7.75;;;25.50;99.90;;;;;;5003698;28;20117;-71
2023/09/07 09:59:19;;;;;;;10.63;7.45;;;25.70;99.90;;;;;;4990650;28;20053;-72
2023/09/07 10:01:50;;;;;;;8.75;7.95;;;25.80;99.90;;;;;;4989029;28;20049;-72
2023/09/07 10:04:19;;;;;;;9.10;7.72;;;26.00;99.90;;;;;;4991181;28;20053;-71
2023/09/07 10:07:01;;;;;;;11.55;8.15;;;26.10;99.90;;;;;;5008148;28;20042;-73
2023/09/07 10:09:36;;;;;;;8.63;7.53;;;26.30;99.90;;;;;;5006249;28;20133;-72
2023/09/07 10:12:08;;;;;;;8.93;8.10;;;26.40;99.90;;;;;;4990805;28;20152;-71
2023/09/07 10:14:42;;;;;;;8.57;7.75;;;26.60;99.90;;;;;;5008102;28;20053;-72
2023/09/07 10:17:09;;;;;;;8.63;7.82;;;26.60;99.90;;;;;;5017870;28;20058;-72
2023/09/07 10:19:39;;;;;;;9.13;8.15;;;26.60;99.90;;;;;;5008629;28;20099;-73
2023/09/07 10:22:07;;;;;;;11.00;9.90;;;26.80;99.90;;;;;;4990865;28;20480;-72
2023/09/07 10:24:35;;;;;;;9.75;8.75;;;26.90;99.90;;;;;;4991788;28;20698;-74
2023/09/07 10:27:05;;;;;;;9.63;8.65;;;27.10;99.90;;;;;;4993874;28;20042;-70
2023/09/07 10:29:49;;;;;;;9.50;8.40;;;27.30;99.90;;;;;;4989656;28;20038;-72
2023/09/07 10:32:22;;;;;;;8.73;7.95;;;27.40;99.90;;;;;;4988298;28;20042;-72
2023/09/07 10:34:50;;;;;;;10.13;7.80;;;27.60;99.90;;;;;;5003948;28;20049;-72
2023/09/07 10:37:19;;;;;;;9.75;8.70;;;27.70;99.90;;;;;;5007966;28;20101;-72
2023/09/07 10:39:47;;;;;;;9.88;8.82;;;27.90;99.90;;;;;;5006571;28;20049;-71
2023/09/07 10:42:24;;;;;;;8.80;8.00;;;28.00;99.90;;;;;;4991782;28;20050;-73
2023/09/07 10:44:53;;;;;;;8.68;7.78;;;28.20;99.90;;;;;;4994631;28;20084;-72
2023/09/07 10:47:21;;;;;;;9.68;8.70;;;28.40;99.90;;;;;;4994542;28;20116;-72
2023/09/07 10:49:49;;;;;;;8.98;8.07;;;28.60;99.90;;;;;;4995087;28;20056;-73
2023/09/07 10:52:16;;;;;;;8.38;7.68;;;28.80;99.90;;;;;;4993884;28;20395;-71
2023/09/07 10:54:44;;;;;;;8.70;7.90;;;28.80;99.90;;;;;;5010092;28;20046;-72
2023/09/07 10:57:17;;;;;;;10.25;8.32;;;29.10;99.90;;;;;;4995608;28;20465;-71
2023/09/07 10:59:46;;;;;;;10.65;8.10;;;29.20;99.90;;;;;;4991564;28;20116;-72
2023/09/07 11:02:15;;;;;;;9.18;8.20;;;29.30;99.60;;;;;;5009566;28;20041;-71
2023/09/07 11:04:43;;;;;;;8.10;7.40;;;29.40;98.20;;;;;;5012092;28;20536;-71
2023/09/07 11:07:11;;;;;;;10.93;8.48;;;29.70;96.90;;;;;;5009206;28;20046;-72
2023/09/07 11:09:43;;;;;;;8.98;8.18;;;29.90;96.50;;;;;;5010380;28;20225;-72
2023/09/07 11:12:19;;;;;;;9.95;9.10;;;30.10;95.50;;;;;;5011103;28;20049;-74
2023/09/07 11:14:50;;;;;;;10.35;9.10;;;30.40;93.80;;;;;;4998910;28;20502;-71
2023/09/07 11:17:18;;;;;;;10.35;8.93;;;30.50;92.60;;;;;;4989420;28;20540;-71
2023/09/07 11:19:52;;;;;;;9.07;8.32;;;30.70;92.00;;;;;;5010016;28;20104;-71
2023/09/07 11:22:20;;;;;;;9.25;8.45;;;30.90;91.60;;;;;;4992104;28;20049;-72
2023/09/07 11:24:48;;;;;;;8.23;7.43;;;31.00;90.60;;;;;;5009836;28;20090;-73
2023/09/07 11:27:19;;;;;;;8.75;8.02;;;31.30;90.10;;;;;;5011757;28;20144;-72
2023/09/07 11:29:53;;;;;;;9.57;8.68;;;31.50;88.20;;;;;;5005185;28;20038;-73
2023/09/07 11:32:23;;;;;;;8.43;7.72;;;31.80;87.60;;;;;;4991306;28;20549;-69
2023/09/07 11:34:52;;;;;;;9.13;8.32;;;32.10;86.10;;;;;;5009669;28;20050;-72
2023/09/07 11:37:26;;;;;;;9.82;8.45;;;32.40;85.00;;;;;;4992425;28;20096;-71
2023/09/07 11:39:54;;;;;;;8.82;7.85;;;32.40;82.60;;;;;;5006668;28;20096;-70
2023/09/07 11:42:22;;;;;;;9.15;8.07;;;32.70;80.20;;;;;;5008730;28;20038;-73
2023/09/07 11:44:49;;;;;;;8.55;7.85;;;33.00;79.60;;;;;;5010346;28;20072;-72
2023/09/07 11:47:17;;;;;;;9.43;8.52;;;33.30;78.20;;;;;;4991881;28;20112;-72
2023/09/07 11:49:44;;;;;;;10.48;8.32;;;33.20;77.40;;;;;;5010631;28;20050;-71
2023/09/07 11:52:12;;;;;;;9.68;8.73;;;33.30;76.70;;;;;;4990462;28;20058;-72
2023/09/07 11:54:40;;;;;;;8.93;8.13;;;33.40;75.70;;;;;;4987635;28;20706;-72
2023/09/07 11:57:09;;;;;;;9.18;8.27;;;33.80;74.50;;;;;;4991032;28;20046;-71
2023/09/07 11:59:36;;;;;;;10.63;9.13;;;34.10;74.80;;;;;;5008158;28;20066;-72
2023/09/07 12:02:24;;;;;;;9.13;8.23;;;34.40;73.70;;;;;;5004833;28;20041;-71
2023/09/07 12:04:52;;;;;;;12.48;7.47;;;34.10;72.50;;;;;;5010427;28;20111;-71
2023/09/07 12:07:19;;;;;;;8.55;7.85;;;34.50;71.70;;;;;;4991958;28;20406;-71
2023/09/07 12:09:48;;;;;;;9.70;8.82;;;34.80;69.90;;;;;;5007837;28;20049;-71
2023/09/07 12:12:16;;;;;;;9.38;8.48;;;35.00;69.90;;;;;;5001751;28;20116;-71
2023/09/07 12:14:43;;;;;;;10.77;9.18;;;35.10;68.30;;;;;;5009611;28;20041;-72
2023/09/07 12:17:10;;;;;;;10.50;9.50;;;35.30;68.10;;;;;;4973197;28;20165;-71
2023/09/07 12:19:38;;;;;;;9.50;8.60;;;35.40;67.70;;;;;;5006326;28;20077;-71
2023/09/07 12:22:05;;;;;;;9.20;8.40;;;35.70;66.60;;;;;;5009352;28;20072;-71
2023/09/07 12:24:33;;;;;;;11.25;9.15;;;36.00;65.20;;;;;;5005312;28;20041;-71
2023/09/07 12:27:00;;;;;;;9.00;8.30;;;36.10;64.40;;;;;;4991176;28;20136;-71
2023/09/07 12:29:28;;;;;;;10.90;8.90;;;36.30;64.40;;;;;;5009856;28;20114;-72
2023/09/07 12:31:56;;;;;;;9.15;8.32;;;36.50;63.70;;;;;;5009213;28;20049;-72
2023/09/07 12:34:25;;;;;;;9.75;8.77;;;36.70;62.70;;;;;;5009223;28;20437;-72
2023/09/07 12:36:59;;;;;;;9.30;8.52;;;36.90;62.00;;;;;;4978187;28;20132;-72
2023/09/07 12:39:26;;;;;;;9.52;8.60;;;37.30;60.80;;;;;;5005376;28;20050;-70
2023/09/07 12:41:54;;;;;;;9.63;8.82;;;37.60;60.00;;;;;;4990314;28;20483;-71
2023/09/07 12:44:21;;;;;;;10.13;8.90;;;37.80;59.60;;;;;;5009618;28;20046;-72
2023/09/07 12:46:49;;;;;;;10.50;8.60;;;37.60;58.10;;;;;;4989173;28;20038;-72
2023/09/07 12:49:17;;;;;;;9.55;8.48;;;37.90;57.60;;;;;;5000675;28;20528;-72